Grout, Vermont
Current Conditions -  °F | °C
As of 5:35 PM on Sunday 23 Nov 2014 (Local Time) from KEEN Reporting Station
Overcast Overcast  
Wind Chill: 50°   Ceiling: 8000
Heat Index: 50°   Visibility: 10mi
Dew Point: 36°   Wind: 6mph
Humidity: 58%   Direction: 200°SSW
Pressure: 30.1"   Gusts: NA
Location:  43.0873°N, 72.4468°W
Report Text: KEEN 232235Z AUTO 20005KT 10SM SCT055 BKN080 OVC100 10/02 A3010 RMK AO1
Loading
Personal Weather Stations






























Interactive Weather Map New forecast layout! Learn more

10-Day Weather Forecast

Advertisements
Track Severe Weather on mobile